sensor_id;sensor_type;location;lat;lon;timestamp;temperature;humidity
17956;DHT22;27666;51.498;11.966;2022-10-31T00:01:38;13.90;99.90
17956;DHT22;27666;51.498;11.966;2022-10-31T00:04:25;13.90;99.90
17956;DHT22;27666;51.498;11.966;2022-10-31T00:07:11;14.00;99.90
17956;DHT22;27666;51.498;11.966;2022-10-31T00:09:58;14.00;99.90
17956;DHT22;27666;51.498;11.966;2022-10-31T00:12:44;13.90;99.90
17956;DHT22;27666;51.498;11.966;2022-10-31T00:15:32;14.00;99.90
17956;DHT22;27666;51.498;11.966;2022-10-31T00:18:20;13.90;99.90
17956;DHT22;27666;51.498;11.966;2022-10-31T00:21:06;13.90;99.90
17956;DHT22;27666;51.498;11.966;2022-10-31T00:23:53;14.00;99.90
17956;DHT22;27666;51.498;11.966;2022-10-31T00:26:39;13.80;99.90
17956;DHT22;27666;51.498;11.966;2022-10-31T00:29:26;13.80;99.90
17956;DHT22;27666;51.498;11.966;2022-10-31T00:32:12;13.90;99.90
17956;DHT22;27666;51.498;11.966;2022-10-31T00:35:00;13.90;99.90
17956;DHT22;27666;51.498;11.966;2022-10-31T00:37:46;13.90;99.90
17956;DHT22;27666;51.498;11.966;2022-10-31T00:40:33;13.90;99.90
17956;DHT22;27666;51.498;11.966;2022-10-31T00:43:19;13.90;99.90
17956;DHT22;27666;51.498;11.966;2022-10-31T00:46:05;13.90;99.90
17956;DHT22;27666;51.498;11.966;2022-10-31T00:48:52;13.90;99.90
17956;DHT22;27666;51.498;11.966;2022-10-31T00:51:40;13.80;99.90
17956;DHT22;27666;51.498;11.966;2022-10-31T00:54:26;13.80;99.90
17956;DHT22;27666;51.498;11.966;2022-10-31T00:57:13;13.90;99.90
17956;DHT22;27666;51.498;11.966;2022-10-31T00:59:59;13.80;99.90
17956;DHT22;27666;51.498;11.966;2022-10-31T01:02:46;13.90;99.90
17956;DHT22;27666;51.498;11.966;2022-10-31T01:05:32;13.90;99.90
17956;DHT22;27666;51.498;11.966;2022-10-31T01:08:20;13.90;99.90
17956;DHT22;27666;51.498;11.966;2022-10-31T01:11:08;13.80;99.90
17956;DHT22;27666;51.498;11.966;2022-10-31T01:13:56;13.80;99.90
17956;DHT22;27666;51.498;11.966;2022-10-31T01:16:42;13.80;99.90
17956;DHT22;27666;51.498;11.966;2022-10-31T01:19:29;13.80;99.90
17956;DHT22;27666;51.498;11.966;2022-10-31T01:22:15;13.80;99.90
17956;DHT22;27666;51.498;11.966;2022-10-31T01:25:03;13.70;99.90
17956;DHT22;27666;51.498;11.966;2022-10-31T01:27:50;13.70;99.90
17956;DHT22;27666;51.498;11.966;2022-10-31T01:30:36;13.70;99.90
17956;DHT22;27666;51.498;11.966;2022-10-31T01:33:22;13.70;99.90
17956;DHT22;27666;51.498;11.966;2022-10-31T01:36:17;13.70;99.90
17956;DHT22;27666;51.498;11.966;2022-10-31T01:39:08;13.70;99.90
17956;DHT22;27666;51.498;11.966;2022-10-31T01:41:56;13.60;99.90
17956;DHT22;27666;51.498;11.966;2022-10-31T01:44:52;13.50;99.90
17956;DHT22;27666;51.498;11.966;2022-10-31T01:47:43;13.50;99.90
17956;DHT22;27666;51.498;11.966;2022-10-31T01:50:34;13.60;99.90
17956;DHT22;27666;51.498;11.966;2022-10-31T01:53:22;13.50;99.90
17956;DHT22;27666;51.498;11.966;2022-10-31T01:56:11;13.50;99.90
17956;DHT22;27666;51.498;11.966;2022-10-31T01:59:01;13.50;99.90
17956;DHT22;27666;51.498;11.966;2022-10-31T02:01:50;13.40;99.90
17956;DHT22;27666;51.498;11.966;2022-10-31T02:04:38;13.30;99.90
17956;DHT22;27666;51.498;11.966;2022-10-31T02:07:28;13.30;99.90
17956;DHT22;27666;51.498;11.966;2022-10-31T02:10:16;13.30;99.90
17956;DHT22;27666;51.498;11.966;2022-10-31T02:13:06;13.20;99.90
17956;DHT22;27666;51.498;11.966;2022-10-31T02:15:55;13.30;99.90
17956;DHT22;27666;51.498;11.966;2022-10-31T02:18:42;13.10;99.90
17956;DHT22;27666;51.498;11.966;2022-10-31T02:21:37;13.20;99.90
17956;DHT22;27666;51.498;11.966;2022-10-31T02:24:43;13.20;99.90
17956;DHT22;27666;51.498;11.966;2022-10-31T02:27:44;13.20;99.90
17956;DHT22;27666;51.498;11.966;2022-10-31T02:30:40;13.20;99.90
17956;DHT22;27666;51.498;11.966;2022-10-31T02:33:35;13.20;99.90
17956;DHT22;27666;51.498;11.966;2022-10-31T02:36:27;13.10;99.90
17956;DHT22;27666;51.498;11.966;2022-10-31T02:39:21;13.20;99.90
17956;DHT22;27666;51.498;11.966;2022-10-31T02:42:14;13.10;99.90
17956;DHT22;27666;51.498;11.966;2022-10-31T02:45:07;13.10;99.90
17956;DHT22;27666;51.498;11.966;2022-10-31T02:47:57;13.10;99.90
17956;DHT22;27666;51.498;11.966;2022-10-31T02:50:50;13.00;99.90
17956;DHT22;27666;51.498;11.966;2022-10-31T02:53:39;13.10;99.90
17956;DHT22;27666;51.498;11.966;2022-10-31T02:56:25;13.00;99.90
17956;DHT22;27666;51.498;11.966;2022-10-31T02:59:12;12.90;99.90
17956;DHT22;27666;51.498;11.966;2022-10-31T03:02:09;12.90;99.90
17956;DHT22;27666;51.498;11.966;2022-10-31T03:05:14;12.90;99.90
17956;DHT22;27666;51.498;11.966;2022-10-31T03:08:10;12.80;99.90
17956;DHT22;27666;51.498;11.966;2022-10-31T03:10:59;12.90;99.90
17956;DHT22;27666;51.498;11.966;2022-10-31T03:13:49;12.90;99.90
17956;DHT22;27666;51.498;11.966;2022-10-31T03:16:41;12.90;99.90
17956;DHT22;27666;51.498;11.966;2022-10-31T03:19:34;13.00;99.90
17956;DHT22;27666;51.498;11.966;2022-10-31T03:22:23;13.00;99.90
17956;DHT22;27666;51.498;11.966;2022-10-31T03:25:13;13.00;99.90
17956;DHT22;27666;51.498;11.966;2022-10-31T03:28:01;12.90;99.90
17956;DHT22;27666;51.498;11.966;2022-10-31T03:30:50;12.80;99.90
17956;DHT22;27666;51.498;11.966;2022-10-31T03:33:39;12.70;99.90
17956;DHT22;27666;51.498;11.966;2022-10-31T03:36:27;12.70;99.90
17956;DHT22;27666;51.498;11.966;2022-10-31T03:39:17;12.60;99.90
17956;DHT22;27666;51.498;11.966;2022-10-31T03:42:09;12.60;99.90
17956;DHT22;27666;51.498;11.966;2022-10-31T03:44:59;12.60;99.90
17956;DHT22;27666;51.498;11.966;2022-10-31T03:47:47;12.60;99.90
17956;DHT22;27666;51.498;11.966;2022-10-31T03:50:41;12.60;99.90
17956;DHT22;27666;51.498;11.966;2022-10-31T03:53:32;12.60;99.90
17956;DHT22;27666;51.498;11.966;2022-10-31T03:56:23;12.60;99.90
17956;DHT22;27666;51.498;11.966;2022-10-31T03:59:17;12.60;99.90
17956;DHT22;27666;51.498;11.966;2022-10-31T04:02:07;12.70;99.90
17956;DHT22;27666;51.498;11.966;2022-10-31T04:04:56;12.60;99.90
17956;DHT22;27666;51.498;11.966;2022-10-31T04:07:45;12.60;99.90
17956;DHT22;27666;51.498;11.966;2022-10-31T04:10:36;12.60;99.90
17956;DHT22;27666;51.498;11.966;2022-10-31T04:13:25;12.60;99.90
17956;DHT22;27666;51.498;11.966;2022-10-31T04:16:14;12.60;99.90
17956;DHT22;27666;51.498;11.966;2022-10-31T04:19:01;12.60;99.90
17956;DHT22;27666;51.498;11.966;2022-10-31T04:21:47;12.60;99.90
17956;DHT22;27666;51.498;11.966;2022-10-31T04:24:34;12.60;99.90
17956;DHT22;27666;51.498;11.966;2022-10-31T04:27:22;12.60;99.90
17956;DHT22;27666;51.498;11.966;2022-10-31T04:30:09;12.50;99.90
17956;DHT22;27666;51.498;11.966;2022-10-31T04:32:57;12.50;99.90
17956;DHT22;27666;51.498;11.966;2022-10-31T04:35:43;12.50;99.90
17956;DHT22;27666;51.498;11.966;2022-10-31T04:38:30;12.40;99.90
17956;DHT22;27666;51.498;11.966;2022-10-31T04:41:16;12.30;99.90
17956;DHT22;27666;51.498;11.966;2022-10-31T04:44:02;12.20;99.90
17956;DHT22;27666;51.498;11.966;2022-10-31T04:46:48;12.20;99.90
17956;DHT22;27666;51.498;11.966;2022-10-31T04:49:36;12.30;99.90
17956;DHT22;27666;51.498;11.966;2022-10-31T04:52:23;12.30;99.90
17956;DHT22;27666;51.498;11.966;2022-10-31T04:55:10;12.30;99.90
17956;DHT22;27666;51.498;11.966;2022-10-31T04:57:56;12.20;99.90
17956;DHT22;27666;51.498;11.966;2022-10-31T05:00:43;12.20;99.90
17956;DHT22;27666;51.498;11.966;2022-10-31T05:03:30;12.20;99.90
17956;DHT22;27666;51.498;11.966;2022-10-31T05:06:18;12.20;99.90
17956;DHT22;27666;51.498;11.966;2022-10-31T05:09:04;12.20;99.90
17956;DHT22;27666;51.498;11.966;2022-10-31T05:11:51;12.20;99.90
17956;DHT22;27666;51.498;11.966;2022-10-31T05:14:37;12.10;99.90
17956;DHT22;27666;51.498;11.966;2022-10-31T05:17:26;12.10;99.90
17956;DHT22;27666;51.498;11.966;2022-10-31T05:20:14;12.10;99.90
17956;DHT22;27666;51.498;11.966;2022-10-31T05:23:02;12.10;99.90
17956;DHT22;27666;51.498;11.966;2022-10-31T05:25:48;12.10;99.90
17956;DHT22;27666;51.498;11.966;2022-10-31T05:28:35;12.10;99.90
17956;DHT22;27666;51.498;11.966;2022-10-31T05:31:21;12.10;99.90
17956;DHT22;27666;51.498;11.966;2022-10-31T05:34:07;12.20;99.90
17956;DHT22;27666;51.498;11.966;2022-10-31T05:36:53;12.20;99.90
17956;DHT22;27666;51.498;11.966;2022-10-31T05:39:41;12.30;99.90
17956;DHT22;27666;51.498;11.966;2022-10-31T05:42:28;12.30;99.90
17956;DHT22;27666;51.498;11.966;2022-10-31T05:45:16;12.20;99.90
17956;DHT22;27666;51.498;11.966;2022-10-31T05:48:04;12.10;99.90
17956;DHT22;27666;51.498;11.966;2022-10-31T05:50:50;12.10;99.90
17956;DHT22;27666;51.498;11.966;2022-10-31T05:53:37;12.10;99.90
17956;DHT22;27666;51.498;11.966;2022-10-31T05:56:25;12.10;99.90
17956;DHT22;27666;51.498;11.966;2022-10-31T05:59:11;12.10;99.90
17956;DHT22;27666;51.498;11.966;2022-10-31T06:01:58;12.10;99.90
17956;DHT22;27666;51.498;11.966;2022-10-31T06:04:44;12.20;99.90
17956;DHT22;27666;51.498;11.966;2022-10-31T06:07:35;12.20;99.90
17956;DHT22;27666;51.498;11.966;2022-10-31T06:10:22;12.20;99.90
17956;DHT22;27666;51.498;11.966;2022-10-31T06:13:10;12.10;99.90
17956;DHT22;27666;51.498;11.966;2022-10-31T06:15:56;12.10;99.90
17956;DHT22;27666;51.498;11.966;2022-10-31T06:18:43;12.10;99.90
17956;DHT22;27666;51.498;11.966;2022-10-31T06:21:29;12.00;99.90
17956;DHT22;27666;51.498;11.966;2022-10-31T06:24:15;12.00;99.90
17956;DHT22;27666;51.498;11.966;2022-10-31T06:27:02;12.10;99.90
17956;DHT22;27666;51.498;11.966;2022-10-31T06:29:50;12.20;99.90
17956;DHT22;27666;51.498;11.966;2022-10-31T06:32:36;12.20;99.90
17956;DHT22;27666;51.498;11.966;2022-10-31T06:35:23;12.20;99.90
17956;DHT22;27666;51.498;11.966;2022-10-31T06:38:09;12.20;99.90
17956;DHT22;27666;51.498;11.966;2022-10-31T06:40:56;12.20;99.90
17956;DHT22;27666;51.498;11.966;2022-10-31T06:43:42;12.30;99.90
17956;DHT22;27666;51.498;11.966;2022-10-31T06:46:30;12.30;99.90
17956;DHT22;27666;51.498;11.966;2022-10-31T06:49:16;12.50;99.90
17956;DHT22;27666;51.498;11.966;2022-10-31T06:52:03;12.40;99.90
17956;DHT22;27666;51.498;11.966;2022-10-31T06:54:49;12.40;99.90
17956;DHT22;27666;51.498;11.966;2022-10-31T06:57:36;12.50;99.90
17956;DHT22;27666;51.498;11.966;2022-10-31T07:00:23;12.50;99.90
17956;DHT22;27666;51.498;11.966;2022-10-31T07:03:12;12.60;99.90
17956;DHT22;27666;51.498;11.966;2022-10-31T07:06:00;12.70;99.90
17956;DHT22;27666;51.498;11.966;2022-10-31T07:08:46;12.90;99.90
17956;DHT22;27666;51.498;11.966;2022-10-31T07:11:33;12.90;99.90
17956;DHT22;27666;51.498;11.966;2022-10-31T07:14:20;13.20;99.90
17956;DHT22;27666;51.498;11.966;2022-10-31T07:17:06;13.30;99.90
17956;DHT22;27666;51.498;11.966;2022-10-31T07:19:54;13.40;99.90
17956;DHT22;27666;51.498;11.966;2022-10-31T07:22:40;13.60;99.90
17956;DHT22;27666;51.498;11.966;2022-10-31T07:25:32;13.70;99.90
17956;DHT22;27666;51.498;11.966;2022-10-31T07:28:18;13.80;99.90
17956;DHT22;27666;51.498;11.966;2022-10-31T07:31:05;14.00;99.90
17956;DHT22;27666;51.498;11.966;2022-10-31T07:33:51;14.20;99.90
17956;DHT22;27666;51.498;11.966;2022-10-31T07:36:39;14.40;99.90
17956;DHT22;27666;51.498;11.966;2022-10-31T07:39:26;14.60;99.90
17956;DHT22;27666;51.498;11.966;2022-10-31T07:42:12;14.70;99.90
17956;DHT22;27666;51.498;11.966;2022-10-31T07:44:58;14.90;99.90
17956;DHT22;27666;51.498;11.966;2022-10-31T07:47:46;15.10;99.90
17956;DHT22;27666;51.498;11.966;2022-10-31T07:50:33;15.20;99.90
17956;DHT22;27666;51.498;11.966;2022-10-31T07:53:21;15.40;99.90
17956;DHT22;27666;51.498;11.966;2022-10-31T07:56:08;15.60;99.90
17956;DHT22;27666;51.498;11.966;2022-10-31T07:58:54;15.80;99.90
17956;DHT22;27666;51.498;11.966;2022-10-31T08:01:41;15.90;99.90
17956;DHT22;27666;51.498;11.966;2022-10-31T08:04:27;15.90;99.90
17956;DHT22;27666;51.498;11.966;2022-10-31T08:07:14;16.10;99.90
17956;DHT22;27666;51.498;11.966;2022-10-31T08:10:01;16.10;99.90
17956;DHT22;27666;51.498;11.966;2022-10-31T08:12:55;16.30;99.90
17956;DHT22;27666;51.498;11.966;2022-10-31T08:15:41;16.40;99.90
17956;DHT22;27666;51.498;11.966;2022-10-31T08:18:27;16.50;99.90
17956;DHT22;27666;51.498;11.966;2022-10-31T08:21:14;16.50;99.90
17956;DHT22;27666;51.498;11.966;2022-10-31T08:24:00;16.70;99.90
17956;DHT22;27666;51.498;11.966;2022-10-31T08:26:48;16.70;99.90
17956;DHT22;27666;51.498;11.966;2022-10-31T08:29:35;16.80;99.90
17956;DHT22;27666;51.498;11.966;2022-10-31T08:32:21;16.90;99.90
17956;DHT22;27666;51.498;11.966;2022-10-31T08:35:08;16.90;99.90
17956;DHT22;27666;51.498;11.966;2022-10-31T08:37:54;17.10;99.90
17956;DHT22;27666;51.498;11.966;2022-10-31T08:40:41;17.10;99.90
17956;DHT22;27666;51.498;11.966;2022-10-31T08:43:28;17.20;99.90
17956;DHT22;27666;51.498;11.966;2022-10-31T08:46:15;17.30;99.90
17956;DHT22;27666;51.498;11.966;2022-10-31T08:49:01;17.50;99.90
17956;DHT22;27666;51.498;11.966;2022-10-31T08:51:48;17.60;99.90
17956;DHT22;27666;51.498;11.966;2022-10-31T08:54:34;17.60;99.90
17956;DHT22;27666;51.498;11.966;2022-10-31T08:57:20;17.60;99.90
17956;DHT22;27666;51.498;11.966;2022-10-31T09:00:09;17.70;99.90
17956;DHT22;27666;51.498;11.966;2022-10-31T09:02:56;17.80;99.90
17956;DHT22;27666;51.498;11.966;2022-10-31T09:05:43;17.90;99.90
17956;DHT22;27666;51.498;11.966;2022-10-31T09:08:31;18.10;99.90
17956;DHT22;27666;51.498;11.966;2022-10-31T09:11:18;18.20;99.90
17956;DHT22;27666;51.498;11.966;2022-10-31T09:14:04;18.30;99.90
17956;DHT22;27666;51.498;11.966;2022-10-31T09:16:52;18.40;99.90
17956;DHT22;27666;51.498;11.966;2022-10-31T09:19:38;18.50;99.90
17956;DHT22;27666;51.498;11.966;2022-10-31T09:22:25;18.60;99.90
17956;DHT22;27666;51.498;11.966;2022-10-31T09:25:12;18.70;99.90
17956;DHT22;27666;51.498;11.966;2022-10-31T09:27:59;18.90;99.90
17956;DHT22;27666;51.498;11.966;2022-10-31T09:30:47;19.00;99.90
17956;DHT22;27666;51.498;11.966;2022-10-31T09:33:35;19.20;99.90
17956;DHT22;27666;51.498;11.966;2022-10-31T09:36:22;19.20;99.90
17956;DHT22;27666;51.498;11.966;2022-10-31T09:39:08;19.20;99.90
17956;DHT22;27666;51.498;11.966;2022-10-31T09:42:06;19.20;99.90
17956;DHT22;27666;51.498;11.966;2022-10-31T09:45:02;19.30;99.90
17956;DHT22;27666;51.498;11.966;2022-10-31T09:48:01;19.30;99.90
17956;DHT22;27666;51.498;11.966;2022-10-31T09:50:56;19.40;99.90
17956;DHT22;27666;51.498;11.966;2022-10-31T09:53:47;19.50;99.90
17956;DHT22;27666;51.498;11.966;2022-10-31T09:56:36;19.50;99.90
17956;DHT22;27666;51.498;11.966;2022-10-31T09:59:26;19.40;99.90
17956;DHT22;27666;51.498;11.966;2022-10-31T10:02:19;19.20;99.90
17956;DHT22;27666;51.498;11.966;2022-10-31T10:05:11;19.10;99.90
17956;DHT22;27666;51.498;11.966;2022-10-31T10:08:18;18.90;99.90
17956;DHT22;27666;51.498;11.966;2022-10-31T10:11:22;18.80;99.90
17956;DHT22;27666;51.498;11.966;2022-10-31T10:14:25;18.80;99.90
17956;DHT22;27666;51.498;11.966;2022-10-31T10:17:22;19.00;99.90
17956;DHT22;27666;51.498;11.966;2022-10-31T10:20:21;19.00;99.90
17956;DHT22;27666;51.498;11.966;2022-10-31T10:23:29;19.10;99.90
17956;DHT22;27666;51.498;11.966;2022-10-31T10:26:20;19.20;99.90
17956;DHT22;27666;51.498;11.966;2022-10-31T10:29:23;19.20;99.90
17956;DHT22;27666;51.498;11.966;2022-10-31T10:32:17;19.20;99.90
17956;DHT22;27666;51.498;11.966;2022-10-31T10:35:14;19.20;99.90
17956;DHT22;27666;51.498;11.966;2022-10-31T10:38:11;19.20;99.90
17956;DHT22;27666;51.498;11.966;2022-10-31T10:41:07;19.00;99.90
17956;DHT22;27666;51.498;11.966;2022-10-31T10:43:56;18.80;99.90
17956;DHT22;27666;51.498;11.966;2022-10-31T10:46:43;18.80;99.90
17956;DHT22;27666;51.498;11.966;2022-10-31T10:49:52;18.90;99.90
17956;DHT22;27666;51.498;11.966;2022-10-31T10:52:42;18.80;99.90
17956;DHT22;27666;51.498;11.966;2022-10-31T10:55:39;18.80;99.90
17956;DHT22;27666;51.498;11.966;2022-10-31T10:58:30;18.80;99.90
17956;DHT22;27666;51.498;11.966;2022-10-31T11:01:16;18.80;99.90
17956;DHT22;27666;51.498;11.966;2022-10-31T11:04:05;18.90;99.90
17956;DHT22;27666;51.498;11.966;2022-10-31T11:07:03;19.00;99.90
17956;DHT22;27666;51.498;11.966;2022-10-31T11:09:50;19.00;99.90
17956;DHT22;27666;51.498;11.966;2022-10-31T11:12:36;18.90;99.90
17956;DHT22;27666;51.498;11.966;2022-10-31T11:15:25;18.90;99.90
17956;DHT22;27666;51.498;11.966;2022-10-31T11:18:19;19.00;99.90
17956;DHT22;27666;51.498;11.966;2022-10-31T11:21:20;18.90;99.90
17956;DHT22;27666;51.498;11.966;2022-10-31T11:24:15;18.90;99.90
17956;DHT22;27666;51.498;11.966;2022-10-31T11:27:12;18.80;99.90
17956;DHT22;27666;51.498;11.966;2022-10-31T11:30:05;18.90;99.90
17956;DHT22;27666;51.498;11.966;2022-10-31T11:32:53;19.00;99.90
17956;DHT22;27666;51.498;11.966;2022-10-31T11:35:40;18.80;99.90
17956;DHT22;27666;51.498;11.966;2022-10-31T11:38:32;18.80;99.90
17956;DHT22;27666;51.498;11.966;2022-10-31T11:41:25;18.70;99.90
17956;DHT22;27666;51.498;11.966;2022-10-31T11:44:14;18.80;99.90
17956;DHT22;27666;51.498;11.966;2022-10-31T11:47:04;18.80;99.90
17956;DHT22;27666;51.498;11.966;2022-10-31T11:49:52;18.80;99.90
17956;DHT22;27666;51.498;11.966;2022-10-31T11:52:40;18.80;99.90
17956;DHT22;27666;51.498;11.966;2022-10-31T11:55:32;18.70;99.90
17956;DHT22;27666;51.498;11.966;2022-10-31T11:58:20;18.90;99.90
17956;DHT22;27666;51.498;11.966;2022-10-31T12:01:23;18.80;99.90
17956;DHT22;27666;51.498;11.966;2022-10-31T12:04:11;18.80;99.90
17956;DHT22;27666;51.498;11.966;2022-10-31T12:07:00;18.80;99.90
17956;DHT22;27666;51.498;11.966;2022-10-31T12:09:46;18.80;99.90
17956;DHT22;27666;51.498;11.966;2022-10-31T12:12:52;18.80;99.90
17956;DHT22;27666;51.498;11.966;2022-10-31T12:15:50;18.80;99.90
17956;DHT22;27666;51.498;11.966;2022-10-31T12:18:55;18.70;99.90
17956;DHT22;27666;51.498;11.966;2022-10-31T12:21:57;18.70;99.90
17956;DHT22;27666;51.498;11.966;2022-10-31T12:25:03;18.70;99.90
17956;DHT22;27666;51.498;11.966;2022-10-31T12:28:11;18.60;99.90
17956;DHT22;27666;51.498;11.966;2022-10-31T12:31:09;18.60;99.90
17956;DHT22;27666;51.498;11.966;2022-10-31T12:34:16;18.60;99.90
17956;DHT22;27666;51.498;11.966;2022-10-31T12:37:10;18.50;99.90
17956;DHT22;27666;51.498;11.966;2022-10-31T12:40:17;18.50;99.90
17956;DHT22;27666;51.498;11.966;2022-10-31T12:43:19;18.50;99.90
17956;DHT22;27666;51.498;11.966;2022-10-31T12:46:16;18.50;99.90
17956;DHT22;27666;51.498;11.966;2022-10-31T12:49:16;18.50;99.90
17956;DHT22;27666;51.498;11.966;2022-10-31T12:52:15;18.40;99.90
17956;DHT22;27666;51.498;11.966;2022-10-31T12:55:25;18.50;99.90
17956;DHT22;27666;51.498;11.966;2022-10-31T12:58:21;18.50;99.90
17956;DHT22;27666;51.498;11.966;2022-10-31T13:01:12;18.50;99.90
17956;DHT22;27666;51.498;11.966;2022-10-31T13:04:02;18.50;99.90
17956;DHT22;27666;51.498;11.966;2022-10-31T13:06:57;18.60;99.90
17956;DHT22;27666;51.498;11.966;2022-10-31T13:09:49;18.60;99.90
17956;DHT22;27666;51.498;11.966;2022-10-31T13:12:39;18.60;99.90
17956;DHT22;27666;51.498;11.966;2022-10-31T13:15:28;18.60;99.90
17956;DHT22;27666;51.498;11.966;2022-10-31T13:18:23;18.60;99.90
17956;DHT22;27666;51.498;11.966;2022-10-31T13:21:17;18.70;99.90
17956;DHT22;27666;51.498;11.966;2022-10-31T13:24:11;18.60;99.90
17956;DHT22;27666;51.498;11.966;2022-10-31T13:27:02;18.50;99.90
17956;DHT22;27666;51.498;11.966;2022-10-31T13:29:59;18.50;99.90
17956;DHT22;27666;51.498;11.966;2022-10-31T13:32:49;18.40;99.90
17956;DHT22;27666;51.498;11.966;2022-10-31T13:35:41;18.40;99.90
17956;DHT22;27666;51.498;11.966;2022-10-31T13:38:33;18.30;99.90
17956;DHT22;27666;51.498;11.966;2022-10-31T13:41:30;18.30;99.90
17956;DHT22;27666;51.498;11.966;2022-10-31T13:44:21;18.30;99.90
17956;DHT22;27666;51.498;11.966;2022-10-31T13:47:24;18.20;99.90
17956;DHT22;27666;51.498;11.966;2022-10-31T13:50:22;18.10;99.90
17956;DHT22;27666;51.498;11.966;2022-10-31T13:53:13;18.20;99.90
17956;DHT22;27666;51.498;11.966;2022-10-31T13:56:04;18.10;99.90
17956;DHT22;27666;51.498;11.966;2022-10-31T13:59:00;18.20;99.90
17956;DHT22;27666;51.498;11.966;2022-10-31T14:01:50;18.10;99.90
17956;DHT22;27666;51.498;11.966;2022-10-31T14:04:44;18.00;99.90
17956;DHT22;27666;51.498;11.966;2022-10-31T14:07:33;18.00;99.90
17956;DHT22;27666;51.498;11.966;2022-10-31T14:10:24;17.90;99.90
17956;DHT22;27666;51.498;11.966;2022-10-31T14:13:15;17.90;99.90
17956;DHT22;27666;51.498;11.966;2022-10-31T14:16:04;17.80;99.90
17956;DHT22;27666;51.498;11.966;2022-10-31T14:18:58;17.80;99.90
17956;DHT22;27666;51.498;11.966;2022-10-31T14:21:46;17.80;99.90
17956;DHT22;27666;51.498;11.966;2022-10-31T14:24:35;17.70;99.90
17956;DHT22;27666;51.498;11.966;2022-10-31T14:27:45;17.60;99.90
17956;DHT22;27666;51.498;11.966;2022-10-31T14:30:32;17.60;99.90
17956;DHT22;27666;51.498;11.966;2022-10-31T14:33:19;17.60;99.90
17956;DHT22;27666;51.498;11.966;2022-10-31T14:36:11;17.60;99.90
17956;DHT22;27666;51.498;11.966;2022-10-31T14:39:08;17.50;99.90
17956;DHT22;27666;51.498;11.966;2022-10-31T14:42:07;17.50;99.90
17956;DHT22;27666;51.498;11.966;2022-10-31T14:45:26;17.60;99.90
17956;DHT22;27666;51.498;11.966;2022-10-31T14:48:33;17.40;99.90
17956;DHT22;27666;51.498;11.966;2022-10-31T14:51:26;17.30;99.90
17956;DHT22;27666;51.498;11.966;2022-10-31T14:54:19;17.30;99.90
17956;DHT22;27666;51.498;11.966;2022-10-31T14:57:15;17.20;99.90
17956;DHT22;27666;51.498;11.966;2022-10-31T15:00:05;17.20;99.90
17956;DHT22;27666;51.498;11.966;2022-10-31T15:03:05;17.20;99.90
17956;DHT22;27666;51.498;11.966;2022-10-31T15:05:54;17.10;99.90
17956;DHT22;27666;51.498;11.966;2022-10-31T15:08:45;17.20;99.90
17956;DHT22;27666;51.498;11.966;2022-10-31T15:11:37;17.00;99.90
17956;DHT22;27666;51.498;11.966;2022-10-31T15:14:26;17.00;99.90
17956;DHT22;27666;51.498;11.966;2022-10-31T15:17:13;16.90;99.90
17956;DHT22;27666;51.498;11.966;2022-10-31T15:20:00;16.80;99.90
17956;DHT22;27666;51.498;11.966;2022-10-31T15:22:46;16.80;99.90
17956;DHT22;27666;51.498;11.966;2022-10-31T15:25:34;16.80;99.90
17956;DHT22;27666;51.498;11.966;2022-10-31T15:28:23;16.70;99.90
17956;DHT22;27666;51.498;11.966;2022-10-31T15:31:14;16.60;99.90
17956;DHT22;27666;51.498;11.966;2022-10-31T15:34:04;16.60;99.90
17956;DHT22;27666;51.498;11.966;2022-10-31T15:36:51;16.50;99.90
17956;DHT22;27666;51.498;11.966;2022-10-31T15:39:38;16.30;99.90
17956;DHT22;27666;51.498;11.966;2022-10-31T15:42:28;16.30;99.90
17956;DHT22;27666;51.498;11.966;2022-10-31T15:45:19;16.20;99.90
17956;DHT22;27666;51.498;11.966;2022-10-31T15:48:15;16.10;99.90
17956;DHT22;27666;51.498;11.966;2022-10-31T15:51:03;15.90;99.90
17956;DHT22;27666;51.498;11.966;2022-10-31T15:53:52;15.80;99.90
17956;DHT22;27666;51.498;11.966;2022-10-31T15:56:43;15.70;99.90
17956;DHT22;27666;51.498;11.966;2022-10-31T15:59:30;15.60;99.90
17956;DHT22;27666;51.498;11.966;2022-10-31T16:02:21;15.50;99.90
17956;DHT22;27666;51.498;11.966;2022-10-31T16:05:16;15.40;99.90
17956;DHT22;27666;51.498;11.966;2022-10-31T16:08:03;15.20;99.90
17956;DHT22;27666;51.498;11.966;2022-10-31T16:10:50;15.30;99.90
17956;DHT22;27666;51.498;11.966;2022-10-31T16:13:39;15.20;99.90
17956;DHT22;27666;51.498;11.966;2022-10-31T16:16:28;15.20;99.90
17956;DHT22;27666;51.498;11.966;2022-10-31T16:19:23;15.20;99.90
17956;DHT22;27666;51.498;11.966;2022-10-31T16:22:12;15.10;99.90
17956;DHT22;27666;51.498;11.966;2022-10-31T16:25:03;15.10;99.90
17956;DHT22;27666;51.498;11.966;2022-10-31T16:27:53;15.10;99.90
17956;DHT22;27666;51.498;11.966;2022-10-31T16:30:41;14.90;99.90
17956;DHT22;27666;51.498;11.966;2022-10-31T16:33:34;14.90;99.90
17956;DHT22;27666;51.498;11.966;2022-10-31T16:36:33;14.80;99.90
17956;DHT22;27666;51.498;11.966;2022-10-31T16:39:23;14.60;99.90
17956;DHT22;27666;51.498;11.966;2022-10-31T16:42:10;14.70;99.90
17956;DHT22;27666;51.498;11.966;2022-10-31T16:44:56;14.60;99.90
17956;DHT22;27666;51.498;11.966;2022-10-31T16:47:42;14.60;99.90
17956;DHT22;27666;51.498;11.966;2022-10-31T16:50:28;14.50;99.90
17956;DHT22;27666;51.498;11.966;2022-10-31T16:53:17;14.40;99.90
17956;DHT22;27666;51.498;11.966;2022-10-31T16:56:04;14.40;99.90
17956;DHT22;27666;51.498;11.966;2022-10-31T16:58:51;14.40;99.90
17956;DHT22;27666;51.498;11.966;2022-10-31T17:01:38;14.40;99.90
17956;DHT22;27666;51.498;11.966;2022-10-31T17:04:25;14.40;99.90
17956;DHT22;27666;51.498;11.966;2022-10-31T17:07:13;14.40;99.90
17956;DHT22;27666;51.498;11.966;2022-10-31T17:10:01;14.40;99.90
17956;DHT22;27666;51.498;11.966;2022-10-31T17:12:48;14.20;99.90
17956;DHT22;27666;51.498;11.966;2022-10-31T17:15:41;14.30;99.90
17956;DHT22;27666;51.498;11.966;2022-10-31T17:18:29;14.20;99.90
17956;DHT22;27666;51.498;11.966;2022-10-31T17:21:18;14.20;99.90
17956;DHT22;27666;51.498;11.966;2022-10-31T17:24:11;14.30;99.90
17956;DHT22;27666;51.498;11.966;2022-10-31T17:26:59;14.20;99.90
17956;DHT22;27666;51.498;11.966;2022-10-31T17:29:46;14.10;99.90
17956;DHT22;27666;51.498;11.966;2022-10-31T17:32:33;14.10;99.90
17956;DHT22;27666;51.498;11.966;2022-10-31T17:35:19;14.00;99.90
17956;DHT22;27666;51.498;11.966;2022-10-31T17:38:06;14.00;99.90